Time;durP1;ratioP1;P1;durP2;ratioP2;P2;SDS_P1;SDS_P2;PMS_P1;PMS_P2;Temp;Humidity;BMP_temperature;BMP_pressure;BME280_temperature;BME280_humidity;BME280_pressure;Samples;Min_cycle;Max_cycle;Signal;HPM_P1;HPM_P2
2023/10/31 00:01:04;;;;;;;12.45;3.33;;;10.30;99.90;;;;;;5082457;28;20036;-77
2023/10/31 00:03:31;;;;;;;15.90;3.55;;;10.50;99.90;;;;;;5076775;28;20052;-77
2023/10/31 00:05:57;;;;;;;10.23;3.53;;;10.30;99.90;;;;;;5082876;28;20050;-76
2023/10/31 00:08:24;;;;;;;13.38;3.67;;;10.30;99.90;;;;;;5086783;28;20114;-77
2023/10/31 00:10:50;;;;;;;14.25;3.28;;;10.30;99.90;;;;;;5083943;28;20045;-77
2023/10/31 00:13:15;;;;;;;13.60;4.10;;;10.20;99.90;;;;;;5071639;28;20044;-76
2023/10/31 00:15:41;;;;;;;19.90;4.00;;;10.20;99.90;;;;;;5092792;28;20071;-78
2023/10/31 00:18:07;;;;;;;16.95;3.95;;;10.30;99.90;;;;;;5090865;28;20523;-77
2023/10/31 00:20:35;;;;;;;17.05;4.22;;;10.20;99.90;;;;;;5072643;28;20378;-77
2023/10/31 00:23:00;;;;;;;12.93;4.47;;;10.20;99.90;;;;;;5089773;28;20044;-78
2023/10/31 00:25:26;;;;;;;13.73;4.65;;;10.20;99.90;;;;;;5091950;28;20059;-78
2023/10/31 00:27:52;;;;;;;14.70;4.07;;;10.20;99.90;;;;;;5088517;28;20047;-78
2023/10/31 00:30:17;;;;;;;9.52;3.60;;;10.20;99.90;;;;;;5089035;28;20055;-78
2023/10/31 00:32:43;;;;;;;10.23;4.40;;;10.30;99.90;;;;;;5085029;28;20378;-78
2023/10/31 00:35:09;;;;;;;12.57;4.30;;;10.20;99.90;;;;;;5086724;28;20043;-78
2023/10/31 00:37:34;;;;;;;11.68;4.10;;;10.20;99.90;;;;;;5086171;28;20053;-78
2023/10/31 00:40:00;;;;;;;14.27;3.85;;;10.30;99.90;;;;;;5085685;28;20055;-78
2023/10/31 00:42:26;;;;;;;12.82;4.40;;;10.20;99.90;;;;;;5082143;28;20108;-78
2023/10/31 00:44:51;;;;;;;13.57;4.30;;;10.30;99.90;;;;;;5081125;28;20077;-77
2023/10/31 00:47:17;;;;;;;14.10;3.60;;;10.30;99.90;;;;;;5085615;28;20044;-77
2023/10/31 00:49:43;;;;;;;11.55;3.75;;;10.20;99.90;;;;;;5086244;28;20150;-77
2023/10/31 00:52:08;;;;;;;12.18;3.92;;;10.40;99.90;;;;;;5101768;28;21175;-76
2023/10/31 00:54:34;;;;;;;15.10;3.65;;;10.30;99.90;;;;;;5084242;28;20367;-78
2023/10/31 00:57:00;;;;;;;12.25;3.50;;;10.30;99.90;;;;;;5087434;28;20074;-76
2023/10/31 00:59:25;;;;;;;13.15;3.40;;;10.30;99.90;;;;;;5088508;28;20036;-77
2023/10/31 01:01:51;;;;;;;15.90;3.30;;;10.20;99.90;;;;;;5090626;28;20088;-78
2023/10/31 01:04:17;;;;;;;8.75;3.38;;;10.20;99.90;;;;;;5087327;28;20052;-77
2023/10/31 01:06:43;;;;;;;12.40;3.70;;;10.20;99.90;;;;;;5097155;27;20453;-79
2023/10/31 01:09:09;;;;;;;11.35;3.50;;;10.20;99.90;;;;;;5085448;28;20032;-78
2023/10/31 01:11:35;;;;;;;10.15;2.70;;;10.20;99.90;;;;;;5086771;28;20118;-77
2023/10/31 01:14:01;;;;;;;8.85;2.72;;;10.20;99.90;;;;;;5083722;28;20442;-79
2023/10/31 01:16:27;;;;;;;9.45;3.47;;;10.20;99.90;;;;;;5095040;28;20052;-78
2023/10/31 01:18:52;;;;;;;13.30;3.25;;;10.10;99.90;;;;;;5095687;28;20066;-78
2023/10/31 01:21:18;;;;;;;8.95;2.50;;;10.10;99.90;;;;;;5098785;28;20052;-77
2023/10/31 01:23:44;;;;;;;9.43;2.30;;;10.10;99.90;;;;;;5081093;28;20367;-76
2023/10/31 01:26:10;;;;;;;16.77;3.33;;;10.00;99.90;;;;;;5099985;28;20040;-77
2023/10/31 01:28:35;;;;;;;11.27;3.42;;;10.10;99.90;;;;;;5089349;28;20120;-77
2023/10/31 01:31:01;;;;;;;14.30;3.40;;;10.00;99.90;;;;;;5097965;28;20046;-77
2023/10/31 01:33:27;;;;;;;10.80;3.08;;;10.00;99.90;;;;;;5100742;28;20044;-78
2023/10/31 01:35:52;;;;;;;10.55;2.85;;;10.00;99.90;;;;;;5086562;28;20051;-77
2023/10/31 01:38:18;;;;;;;8.95;2.75;;;10.00;99.90;;;;;;5090688;28;20028;-76
2023/10/31 01:40:45;;;;;;;10.93;3.10;;;10.00;99.90;;;;;;5093920;28;20036;-76
2023/10/31 01:43:11;;;;;;;10.93;3.15;;;10.00;99.90;;;;;;5073412;28;20086;-76
2023/10/31 01:45:36;;;;;;;10.82;3.40;;;10.00;99.90;;;;;;5082310;28;20035;-76
2023/10/31 01:48:03;;;;;;;9.05;3.30;;;10.00;99.90;;;;;;5093999;28;20135;-76
2023/10/31 01:50:28;;;;;;;10.23;2.80;;;10.00;99.90;;;;;;5088693;28;20055;-78
2023/10/31 01:52:54;;;;;;;13.68;3.30;;;10.00;99.90;;;;;;5090199;28;20127;-76
2023/10/31 01:55:21;;;;;;;14.57;3.00;;;9.90;99.90;;;;;;5093370;28;20058;-75
2023/10/31 01:57:49;;;;;;;13.00;3.10;;;9.90;99.90;;;;;;5109734;27;20043;-76
2023/10/31 02:00:15;;;;;;;13.43;2.90;;;9.90;99.90;;;;;;5084003;28;20036;-77
2023/10/31 02:02:43;;;;;;;13.27;2.72;;;9.80;99.90;;;;;;5096729;28;20083;-76
2023/10/31 02:05:11;;;;;;;16.58;3.10;;;9.80;99.90;;;;;;5091785;28;20066;-76
2023/10/31 02:07:37;;;;;;;9.43;2.20;;;9.80;99.90;;;;;;5102419;28;20032;-76
2023/10/31 02:10:05;;;;;;;11.57;2.58;;;9.80;99.90;;;;;;5100782;28;20154;-77
2023/10/31 02:12:33;;;;;;;11.70;3.03;;;9.80;99.90;;;;;;5083459;28;20049;-77
2023/10/31 02:14:59;;;;;;;12.50;2.88;;;9.80;99.90;;;;;;5097364;28;20083;-78
2023/10/31 02:17:25;;;;;;;12.70;2.70;;;9.70;99.90;;;;;;5115936;27;20036;-77
2023/10/31 02:19:51;;;;;;;24.70;3.55;;;9.70;99.90;;;;;;5092517;28;20405;-79
2023/10/31 02:22:16;;;;;;;7.85;2.33;;;9.70;99.90;;;;;;5094472;28;20036;-77
2023/10/31 02:24:42;;;;;;;13.23;3.20;;;9.80;99.90;;;;;;5096580;28;20043;-77
2023/10/31 02:27:08;;;;;;;8.73;2.55;;;9.70;99.90;;;;;;5079879;28;20040;-78
2023/10/31 02:29:33;;;;;;;14.60;2.45;;;9.70;99.90;;;;;;5087952;28;20032;-77
2023/10/31 02:31:59;;;;;;;13.20;2.90;;;9.70;99.90;;;;;;5089431;28;20040;-76
2023/10/31 02:34:26;;;;;;;15.05;2.92;;;9.70;99.90;;;;;;5100913;28;20032;-76
2023/10/31 02:36:52;;;;;;;7.63;2.50;;;9.70;99.90;;;;;;5084147;28;20051;-77
2023/10/31 02:39:17;;;;;;;20.25;3.17;;;9.70;99.90;;;;;;5091590;28;20058;-77
2023/10/31 02:41:43;;;;;;;12.55;3.47;;;9.70;99.90;;;;;;5086842;28;20499;-77
2023/10/31 02:44:09;;;;;;;16.58;4.35;;;9.70;99.90;;;;;;5090397;28;20043;-77
2023/10/31 02:46:38;;;;;;;15.95;4.07;;;9.70;99.90;;;;;;5088587;28;20115;-78
2023/10/31 02:49:04;;;;;;;13.88;4.47;;;9.80;99.90;;;;;;5086352;28;20048;-76
2023/10/31 02:51:29;;;;;;;20.10;4.78;;;9.70;99.90;;;;;;5090247;28;20154;-76
2023/10/31 02:53:55;;;;;;;15.52;4.40;;;9.80;99.90;;;;;;5075038;28;20043;-77
2023/10/31 02:56:21;;;;;;;16.95;4.28;;;9.80;99.90;;;;;;5090551;28;20044;-77
2023/10/31 02:58:47;;;;;;;13.98;4.22;;;9.80;99.90;;;;;;5084915;28;20532;-78
2023/10/31 03:01:15;;;;;;;20.75;5.70;;;9.70;99.90;;;;;;5086233;28;20087;-78
2023/10/31 03:03:40;;;;;;;20.38;5.50;;;9.70;99.90;;;;;;5092005;28;20044;-77
2023/10/31 03:06:06;;;;;;;21.60;6.03;;;9.70;99.90;;;;;;5094252;28;20044;-78
2023/10/31 03:08:32;;;;;;;21.33;6.93;;;9.70;99.90;;;;;;5096875;28;20098;-78
2023/10/31 03:10:58;;;;;;;24.10;6.72;;;9.70;99.90;;;;;;5071545;28;20422;-79
2023/10/31 03:13:23;;;;;;;24.25;6.25;;;9.70;99.90;;;;;;5087794;28;20036;-78
2023/10/31 03:15:49;;;;;;;21.52;6.20;;;9.70;99.90;;;;;;5092337;28;20048;-78
2023/10/31 03:18:15;;;;;;;20.92;6.60;;;9.70;99.90;;;;;;5091945;28;20385;-78
2023/10/31 03:20:43;;;;;;;24.58;6.43;;;10.50;99.90;;;;;;5094605;28;20466;-79
2023/10/31 03:23:09;;;;;;;;;;;9.80;99.90;;;;;;5093871;28;20044;-78
2023/10/31 03:25:36;;;;;;;18.40;6.72;;;9.80;99.90;;;;;;5093668;28;19947;-76
2023/10/31 03:28:02;;;;;;;24.50;7.72;;;9.80;99.90;;;;;;5082097;28;20052;-78
2023/10/31 03:30:28;;;;;;;17.52;7.85;;;9.70;99.90;;;;;;5086392;28;20047;-79
2023/10/31 03:32:54;;;;;;;27.08;9.45;;;9.70;99.90;;;;;;5095417;28;20068;-79
2023/10/31 03:35:20;;;;;;;21.38;9.82;;;9.70;99.90;;;;;;5110169;28;20044;-77
2023/10/31 03:37:46;;;;;;;28.45;9.75;;;9.70;99.90;;;;;;5103259;28;20040;-79
2023/10/31 03:40:15;;;;;;;23.58;10.73;;;9.70;99.90;;;;;;5092919;28;20483;-78
2023/10/31 03:42:40;;;;;;;24.88;11.10;;;9.70;99.90;;;;;;5078521;28;20404;-80
2023/10/31 03:45:09;;;;;;;27.55;11.15;;;9.70;99.90;;;;;;5097086;28;20052;-78
2023/10/31 03:47:35;;;;;;;35.00;13.65;;;9.70;99.90;;;;;;5076792;28;20406;-79
2023/10/31 03:50:01;;;;;;;29.52;12.25;;;9.70;99.90;;;;;;5097387;28;20040;-80
2023/10/31 03:52:27;;;;;;;37.25;13.82;;;9.80;99.90;;;;;;5091559;28;20063;-78
2023/10/31 03:54:53;;;;;;;39.58;14.20;;;9.80;99.90;;;;;;5087713;28;20501;-77
2023/10/31 03:57:18;;;;;;;23.10;11.70;;;9.80;99.90;;;;;;5093610;28;20473;-78
2023/10/31 03:59:47;;;;;;;27.98;12.45;;;10.60;99.90;;;;;;5099488;28;20150;-78
2023/10/31 04:02:12;;;;;;;24.85;10.75;;;9.80;99.90;;;;;;5088980;28;20044;-77
2023/10/31 04:04:38;;;;;;;28.70;11.77;;;9.90;99.90;;;;;;5095631;28;20118;-77
2023/10/31 04:07:04;;;;;;;30.83;13.07;;;9.80;99.90;;;;;;5094841;28;20123;-78
2023/10/31 04:09:30;;;;;;;23.90;10.98;;;9.80;99.90;;;;;;5073951;28;20083;-77
2023/10/31 04:11:56;;;;;;;20.67;9.55;;;9.80;99.90;;;;;;5086367;28;20044;-77
2023/10/31 04:14:22;;;;;;;21.38;9.10;;;9.90;99.90;;;;;;5099636;28;20082;-78
2023/10/31 04:16:48;;;;;;;30.70;11.50;;;9.90;99.90;;;;;;5087738;28;20040;-78
2023/10/31 04:19:13;;;;;;;29.30;11.63;;;9.80;99.90;;;;;;5099715;28;20044;-78
2023/10/31 04:21:39;;;;;;;21.02;9.38;;;9.90;99.90;;;;;;5102631;28;20045;-79
2023/10/31 04:24:06;;;;;;;24.48;10.35;;;9.90;99.90;;;;;;5085172;28;20040;-77
2023/10/31 04:26:31;;;;;;;26.85;10.60;;;9.90;99.90;;;;;;5094668;28;20489;-78
2023/10/31 04:28:57;;;;;;;26.95;10.50;;;9.90;99.90;;;;;;5083627;28;20130;-81
2023/10/31 04:31:22;;;;;;;22.95;9.02;;;9.90;99.90;;;;;;5108397;28;20046;-77
2023/10/31 04:33:48;;;;;;;26.88;9.60;;;10.40;99.90;;;;;;5088055;28;20474;-78
2023/10/31 04:36:14;;;;;;;21.25;8.98;;;10.70;99.90;;;;;;5084964;28;20120;-79
2023/10/31 04:38:40;;;;;;;15.05;7.00;;;10.00;99.90;;;;;;5098098;28;20170;-78
2023/10/31 04:41:10;;;;;;;18.73;7.47;;;10.00;99.90;;;;;;5091498;28;20350;-78
2023/10/31 04:43:36;;;;;;;17.65;6.50;;;10.00;99.90;;;;;;5081503;28;20083;-78
2023/10/31 04:46:02;;;;;;;16.48;6.70;;;10.00;99.90;;;;;;5103351;28;20551;-78
2023/10/31 04:48:27;;;;;;;17.27;6.38;;;9.90;99.90;;;;;;5106476;28;21835;-76
2023/10/31 04:50:53;;;;;;;15.77;5.72;;;10.00;99.90;;;;;;5100057;28;20044;-77
2023/10/31 04:53:18;;;;;;;19.02;7.05;;;9.90;99.90;;;;;;5096312;28;20094;-77
2023/10/31 04:55:44;;;;;;;25.20;7.65;;;10.00;99.90;;;;;;5082047;28;20800;-76
2023/10/31 04:58:10;;;;;;;21.30;7.05;;;10.00;99.90;;;;;;5097291;28;20494;-79
2023/10/31 05:00:35;;;;;;;18.38;6.88;;;9.90;99.90;;;;;;5093507;28;20055;-77
2023/10/31 05:03:02;;;;;;;20.08;8.07;;;9.90;99.90;;;;;;5099167;28;20413;-77
2023/10/31 05:05:28;;;;;;;24.33;8.88;;;10.50;99.90;;;;;;5088932;28;20044;-77
2023/10/31 05:07:54;;;;;;;64.15;17.52;;;9.90;99.90;;;;;;5089970;28;20433;-77
2023/10/31 05:10:19;;;;;;;36.08;12.35;;;9.90;99.90;;;;;;5091684;28;20074;-77
2023/10/31 05:12:45;;;;;;;28.77;9.63;;;9.90;99.90;;;;;;5088320;28;20049;-79
2023/10/31 05:15:11;;;;;;;39.20;11.40;;;9.90;99.90;;;;;;5093157;28;20032;-77
2023/10/31 05:17:36;;;;;;;27.20;8.43;;;10.00;99.90;;;;;;5079690;28;20474;-78
2023/10/31 05:20:02;;;;;;;24.40;7.68;;;10.00;99.90;;;;;;5088501;28;20044;-77
2023/10/31 05:22:28;;;;;;;24.88;7.35;;;10.00;99.90;;;;;;5088054;28;20478;-78
2023/10/31 05:24:53;;;;;;;30.65;7.32;;;10.00;99.90;;;;;;5093917;28;20048;-78
2023/10/31 05:27:19;;;;;;;29.77;7.43;;;10.00;99.90;;;;;;5090503;28;20096;-78
2023/10/31 05:29:45;;;;;;;13.77;5.00;;;10.00;99.90;;;;;;5092715;28;20039;-77
2023/10/31 05:32:10;;;;;;;19.65;5.80;;;10.40;99.90;;;;;;5093084;28;20044;-78
2023/10/31 05:34:36;;;;;;;11.90;4.35;;;10.10;99.90;;;;;;5091006;28;20115;-78
2023/10/31 05:37:02;;;;;;;8.50;3.88;;;10.00;99.90;;;;;;5095913;28;20046;-79
2023/10/31 05:39:30;;;;;;;11.82;4.15;;;10.00;99.90;;;;;;5086984;28;20135;-79
2023/10/31 05:41:59;;;;;;;12.75;3.80;;;10.00;99.90;;;;;;5082771;28;20054;-79
2023/10/31 05:44:24;;;;;;;10.50;2.65;;;10.00;99.90;;;;;;5099158;28;20463;-78
2023/10/31 05:46:50;;;;;;;10.13;3.45;;;10.00;99.90;;;;;;5085167;28;20075;-79
2023/10/31 05:49:16;;;;;;;9.32;3.38;;;10.20;99.90;;;;;;5098891;28;20043;-80
2023/10/31 05:51:43;;;;;;;14.35;5.03;;;10.00;99.90;;;;;;5096628;28;20086;-78
2023/10/31 05:54:09;;;;;;;11.15;4.13;;;10.00;99.90;;;;;;5105294;28;20051;-78
2023/10/31 05:56:35;;;;;;;8.68;4.43;;;10.00;99.90;;;;;;5091268;28;20040;-78
2023/10/31 05:59:00;;;;;;;11.75;4.70;;;10.30;99.90;;;;;;5092142;28;20043;-79
2023/10/31 06:01:26;;;;;;;10.95;3.50;;;10.20;99.90;;;;;;5086345;28;20051;-77
2023/10/31 06:03:55;;;;;;;12.90;3.72;;;10.00;99.90;;;;;;5090315;28;20060;-77
2023/10/31 06:06:24;;;;;;;10.52;3.70;;;10.00;99.90;;;;;;5092073;28;20100;-78
2023/10/31 06:08:49;;;;;;;9.38;3.47;;;10.00;99.90;;;;;;5085588;28;20052;-77
2023/10/31 06:11:17;;;;;;;8.43;3.88;;;10.00;99.90;;;;;;5099618;28;20070;-78
2023/10/31 06:13:43;;;;;;;10.82;3.80;;;10.00;99.90;;;;;;5082156;28;20055;-80
2023/10/31 06:16:09;;;;;;;13.45;4.57;;;9.90;99.90;;;;;;5072736;28;20445;-78
2023/10/31 06:18:37;;;;;;;10.40;4.03;;;9.90;99.90;;;;;;5098384;28;20040;-79
2023/10/31 06:21:03;;;;;;;9.93;3.97;;;10.00;99.90;;;;;;5079713;28;20131;-77
2023/10/31 06:23:29;;;;;;;12.43;4.22;;;10.00;99.90;;;;;;5096571;28;20152;-79
2023/10/31 06:25:55;;;;;;;9.82;3.78;;;10.00;99.90;;;;;;5096720;28;20033;-78
2023/10/31 06:28:20;;;;;;;12.70;4.70;;;10.00;99.90;;;;;;5097226;28;20135;-78
2023/10/31 06:30:46;;;;;;;12.48;5.18;;;10.00;99.90;;;;;;5083653;28;20042;-79
2023/10/31 06:33:12;;;;;;;11.35;5.20;;;10.40;99.90;;;;;;5100906;28;20465;-78
2023/10/31 06:35:37;;;;;;;16.42;6.28;;;10.00;99.90;;;;;;5096857;28;20053;-79
2023/10/31 06:38:03;;;;;;;11.55;5.05;;;10.80;99.90;;;;;;5100477;28;20464;-79
2023/10/31 06:40:29;;;;;;;10.07;4.60;;;10.00;99.90;;;;;;5077689;28;20044;-80
2023/10/31 06:42:54;;;;;;;19.50;6.28;;;10.00;99.90;;;;;;5110449;28;20101;-79
2023/10/31 06:45:23;;;;;;;12.45;5.72;;;10.10;99.90;;;;;;5094127;28;20520;-80
2023/10/31 06:47:49;;;;;;;17.40;7.03;;;11.00;99.90;;;;;;5079753;28;20094;-80
2023/10/31 06:50:14;;;;;;;11.38;5.80;;;10.10;99.90;;;;;;5090452;28;20036;-80
2023/10/31 06:52:40;;;;;;;17.60;7.32;;;10.00;99.90;;;;;;5093353;28;20039;-80
2023/10/31 06:55:06;;;;;;;28.42;8.73;;;10.10;99.90;;;;;;5092244;28;20047;-79
2023/10/31 06:57:32;;;;;;;22.40;7.63;;;10.10;99.90;;;;;;5096848;28;20559;-80
2023/10/31 06:59:58;;;;;;;17.65;7.15;;;10.10;99.90;;;;;;5087809;28;20047;-80
2023/10/31 07:02:25;;;;;;;25.33;8.27;;;10.40;99.90;;;;;;5107882;28;20081;-79
2023/10/31 07:04:51;;;;;;;17.15;6.38;;;10.10;99.90;;;;;;5081047;28;20432;-80
2023/10/31 07:07:16;;;;;;;17.65;7.43;;;10.40;99.90;;;;;;5108178;28;20040;-79
2023/10/31 07:09:42;;;;;;;21.35;8.02;;;10.40;99.90;;;;;;5084197;28;20048;-79
2023/10/31 07:12:08;;;;;;;20.77;6.72;;;10.10;99.90;;;;;;5095290;28;20044;-79
2023/10/31 07:14:33;;;;;;;12.45;6.10;;;10.10;99.90;;;;;;5088235;28;20037;-81
2023/10/31 07:16:59;;;;;;;22.42;7.00;;;10.10;99.90;;;;;;5081861;28;20401;-79
2023/10/31 07:19:25;;;;;;;18.00;7.80;;;10.10;99.90;;;;;;5081430;28;20040;-78
2023/10/31 07:21:50;;;;;;;17.40;6.57;;;10.10;99.90;;;;;;5097405;28;20074;-79
2023/10/31 07:24:16;;;;;;;27.70;8.75;;;10.10;99.90;;;;;;5084928;28;20063;-80
2023/10/31 07:26:42;;;;;;;15.52;6.30;;;10.70;99.90;;;;;;5084934;28;20059;-79
2023/10/31 07:29:08;;;;;;;16.45;6.65;;;10.20;99.90;;;;;;5080470;28;20048;-79
2023/10/31 07:31:38;;;;;;;26.35;7.97;;;10.10;99.90;;;;;;5090702;28;20058;-80
2023/10/31 07:34:09;;;;;;;22.92;8.38;;;10.20;99.90;;;;;;5090433;28;20101;-79
2023/10/31 07:36:37;;;;;;;20.20;8.10;;;10.20;99.90;;;;;;5071497;28;20040;-80
2023/10/31 07:39:03;;;;;;;17.00;6.55;;;10.20;99.90;;;;;;5093380;28;20067;-78
2023/10/31 07:41:29;;;;;;;33.67;9.25;;;10.20;99.90;;;;;;5084689;28;20406;-79
2023/10/31 07:43:55;;;;;;;17.75;6.75;;;10.20;99.90;;;;;;5081800;28;20047;-78
2023/10/31 07:46:21;;;;;;;19.73;6.70;;;10.30;99.90;;;;;;5096888;28;20040;-80
2023/10/31 07:48:47;;;;;;;12.25;5.25;;;10.30;99.90;;;;;;5086095;28;20044;-79
2023/10/31 07:51:12;;;;;;;17.63;5.57;;;10.30;99.90;;;;;;5079068;28;20041;-78
2023/10/31 07:53:38;;;;;;;17.77;6.13;;;10.30;99.90;;;;;;5078181;28;20047;-79
2023/10/31 07:56:04;;;;;;;22.15;6.72;;;10.30;99.90;;;;;;5109549;28;20040;-79
2023/10/31 07:58:29;;;;;;;22.08;5.43;;;10.40;99.90;;;;;;5075202;28;20037;-78
2023/10/31 08:00:59;;;;;;;16.08;5.20;;;10.40;99.90;;;;;;5092283;28;20086;-78
2023/10/31 08:03:25;;;;;;;17.27;5.00;;;10.40;99.90;;;;;;5095047;28;20063;-77
2023/10/31 08:05:51;;;;;;;20.17;6.13;;;10.40;99.90;;;;;;5075209;28;20052;-80
2023/10/31 08:08:16;;;;;;;19.17;5.40;;;10.50;99.90;;;;;;5081304;28;20097;-79
2023/10/31 08:10:42;;;;;;;14.80;5.18;;;10.50;99.90;;;;;;5088940;28;20123;-78
2023/10/31 08:13:08;;;;;;;17.25;5.70;;;10.50;99.90;;;;;;5107320;28;20036;-78
2023/10/31 08:15:33;;;;;;;13.60;6.28;;;10.60;99.90;;;;;;5091848;28;20032;-78
2023/10/31 08:18:02;;;;;;;17.15;6.07;;;10.60;99.90;;;;;;5096417;28;20043;-79
2023/10/31 08:20:32;;;;;;;14.38;6.18;;;10.70;99.90;;;;;;5097823;28;20186;-78
2023/10/31 08:22:58;;;;;;;18.50;6.68;;;10.70;99.90;;;;;;5093816;28;20562;-78
2023/10/31 08:25:24;;;;;;;23.80;7.75;;;10.80;99.90;;;;;;5093822;28;20036;-79
2023/10/31 08:27:49;;;;;;;20.88;8.20;;;10.90;99.90;;;;;;5080923;28;20040;-78
2023/10/31 08:30:15;;;;;;;14.70;7.80;;;10.80;99.90;;;;;;5091569;28;20067;-78
2023/10/31 08:32:44;;;;;;;12.70;6.25;;;10.90;99.90;;;;;;5084760;28;20043;-79
2023/10/31 08:35:09;;;;;;;21.05;7.43;;;10.90;99.90;;;;;;5096644;28;20036;-78
2023/10/31 08:37:35;;;;;;;16.05;6.05;;;10.90;99.90;;;;;;5093802;28;20378;-79
2023/10/31 08:40:03;;;;;;;17.65;5.18;;;11.00;99.90;;;;;;5086597;28;20040;-79
2023/10/31 08:42:29;;;;;;;14.02;3.15;;;10.90;99.90;;;;;;5079054;28;20063;-78
2023/10/31 08:44:58;;;;;;;20.23;3.95;;;11.90;99.90;;;;;;5089412;28;20044;-79
2023/10/31 08:47:23;;;;;;;11.65;2.80;;;11.20;99.90;;;;;;5078965;28;20058;-78
2023/10/31 08:49:49;;;;;;;17.45;2.65;;;11.00;99.90;;;;;;5095939;28;20107;-78
2023/10/31 08:52:14;;;;;;;15.27;3.17;;;11.10;99.90;;;;;;5096948;28;20074;-80
2023/10/31 08:54:40;;;;;;;15.80;2.55;;;11.20;99.90;;;;;;5093230;28;20060;-79
2023/10/31 08:57:06;;;;;;;26.05;3.33;;;11.20;99.90;;;;;;5091994;28;20087;-79
2023/10/31 08:59:32;;;;;;;27.98;3.80;;;11.80;99.90;;;;;;5095942;28;20040;-79
2023/10/31 09:02:01;;;;;;;16.15;2.40;;;11.30;99.90;;;;;;5098937;28;20056;-79
2023/10/31 09:04:27;;;;;;;17.10;2.80;;;11.30;99.90;;;;;;5094032;28;20082;-80
2023/10/31 09:06:52;;;;;;;10.60;2.08;;;11.30;99.90;;;;;;5078681;28;20498;-79
2023/10/31 09:09:20;;;;;;;11.65;2.00;;;11.20;99.90;;;;;;5071131;28;20533;-79
2023/10/31 09:11:46;;;;;;;10.13;1.80;;;11.40;99.90;;;;;;5070731;28;20446;-78
2023/10/31 09:14:12;;;;;;;5.57;1.45;;;11.10;99.90;;;;;;5089463;28;20060;-80
2023/10/31 09:16:37;;;;;;;12.95;1.60;;;11.00;99.90;;;;;;5079449;28;20447;-78
2023/10/31 09:19:03;;;;;;;12.20;1.92;;;11.00;99.90;;;;;;5080012;28;20036;-79
2023/10/31 09:21:31;;;;;;;9.90;1.65;;;10.90;99.90;;;;;;5085695;28;20482;-79
2023/10/31 09:23:56;;;;;;;12.27;2.22;;;10.10;99.90;;;;;;5083259;28;20047;-78
2023/10/31 09:26:22;;;;;;;16.63;1.95;;;11.10;99.90;;;;;;5089179;28;20103;-78
2023/10/31 09:28:49;;;;;;;9.98;1.60;;;10.80;99.90;;;;;;5087610;28;20397;-79
2023/10/31 09:31:17;;;;;;;14.27;2.30;;;10.90;99.90;;;;;;5081973;28;20040;-78
2023/10/31 09:33:44;;;;;;;6.93;1.73;;;10.80;99.90;;;;;;5098834;28;20048;-79
2023/10/31 09:36:10;;;;;;;9.35;1.70;;;10.70;99.90;;;;;;5098809;28;20533;-79
2023/10/31 09:38:35;;;;;;;6.20;1.52;;;10.70;99.90;;;;;;5087956;28;20036;-79
2023/10/31 09:41:01;;;;;;;14.43;1.85;;;10.70;99.90;;;;;;5097291;28;20454;-79
2023/10/31 09:43:27;;;;;;;5.63;1.42;;;10.70;99.90;;;;;;5101920;28;20394;-80
2023/10/31 09:45:57;;;;;;;5.72;1.40;;;10.70;99.90;;;;;;5087844;28;20052;-78
2023/10/31 09:48:23;;;;;;;12.27;1.98;;;10.70;99.90;;;;;;5088723;28;20047;-78
2023/10/31 09:50:49;;;;;;;7.40;1.58;;;10.70;99.90;;;;;;5088538;28;20066;-79
2023/10/31 09:53:19;;;;;;;5.82;1.10;;;11.00;99.90;;;;;;5086162;28;20044;-79
2023/10/31 09:55:46;;;;;;;5.30;1.30;;;11.20;99.90;;;;;;5093063;28;20052;-79
2023/10/31 09:58:12;;;;;;;5.53;1.50;;;11.30;99.90;;;;;;5090241;28;20493;-79
2023/10/31 10:00:40;;;;;;;6.85;1.38;;;11.40;99.90;;;;;;5097582;28;20052;-79
2023/10/31 10:03:09;;;;;;;4.00;1.08;;;11.70;99.90;;;;;;5098160;28;20386;-79
2023/10/31 10:05:35;;;;;;;8.30;1.80;;;11.80;99.90;;;;;;5084914;28;20054;-80
2023/10/31 10:08:01;;;;;;;6.75;1.45;;;11.80;99.90;;;;;;5095844;28;20390;-78
2023/10/31 10:10:29;;;;;;;5.18;1.33;;;11.70;99.90;;;;;;5100153;28;20093;-79
2023/10/31 10:12:55;;;;;;;5.65;1.63;;;11.60;99.90;;;;;;5108849;28;20383;-78
2023/10/31 10:15:21;;;;;;;4.65;1.30;;;11.60;99.90;;;;;;5084232;28;20109;-80
2023/10/31 10:17:51;;;;;;;7.82;1.40;;;11.60;99.90;;;;;;5098216;28;20048;-80
2023/10/31 10:20:18;;;;;;;5.95;1.35;;;11.80;99.90;;;;;;5079288;28;20078;-80
2023/10/31 10:22:47;;;;;;;7.35;1.60;;;12.00;99.90;;;;;;5080171;28;20047;-79
2023/10/31 10:25:18;;;;;;;8.27;1.40;;;12.20;99.90;;;;;;5089624;28;20044;-78
2023/10/31 10:27:47;;;;;;;9.07;1.70;;;12.30;99.90;;;;;;5074345;28;20073;-79
2023/10/31 10:30:14;;;;;;;4.68;1.48;;;12.20;99.90;;;;;;5097223;28;20493;-78
2023/10/31 10:32:40;;;;;;;5.60;1.25;;;11.90;99.90;;;;;;5094888;28;20048;-78
2023/10/31 10:35:08;;;;;;;6.55;1.30;;;11.80;99.90;;;;;;5094063;28;20044;-80
2023/10/31 10:37:38;;;;;;;6.78;1.35;;;11.80;99.90;;;;;;5094282;28;20485;-78
2023/10/31 10:40:06;;;;;;;6.35;1.10;;;11.80;99.90;;;;;;5083642;28;20079;-79
2023/10/31 10:42:35;;;;;;;;;;;11.70;99.90;;;;;;5094414;28;20036;-78
2023/10/31 10:45:05;;;;;;;7.72;1.88;;;11.60;99.90;;;;;;5076107;28;20421;-80
2023/10/31 10:47:37;;;;;;;6.57;1.40;;;11.50;99.90;;;;;;5086057;28;20062;-80
2023/10/31 10:50:07;;;;;;;8.95;1.52;;;11.40;99.90;;;;;;5096363;28;20040;-79
2023/10/31 10:52:54;;;;;;;7.93;1.52;;;11.40;99.90;;;;;;5089622;28;20124;-79
2023/10/31 10:55:23;;;;;;;7.38;1.30;;;11.50;99.90;;;;;;5099058;28;20370;-77
2023/10/31 10:58:05;;;;;;;5.63;1.58;;;11.30;99.90;;;;;;5078033;28;20433;-79
2023/10/31 11:00:34;;;;;;;10.70;1.90;;;11.20;99.90;;;;;;5076961;28;20394;-78
2023/10/31 11:03:04;;;;;;;10.38;1.80;;;11.50;99.90;;;;;;5059122;28;20362;-78
2023/10/31 11:05:31;;;;;;;11.70;1.83;;;11.20;99.90;;;;;;5076063;28;20044;-79
2023/10/31 11:07:57;;;;;;;9.98;2.00;;;11.20;99.90;;;;;;5073266;28;20048;-78
2023/10/31 11:10:23;;;;;;;9.02;1.90;;;11.30;99.90;;;;;;5094617;28;20484;-77
2023/10/31 11:12:50;;;;;;;5.90;1.70;;;11.40;99.90;;;;;;5091850;28;20048;-78
2023/10/31 11:15:19;;;;;;;5.78;1.60;;;11.40;99.90;;;;;;5077565;28;20049;-79
2023/10/31 11:17:47;;;;;;;11.32;2.53;;;11.50;99.90;;;;;;5075686;28;20466;-78
2023/10/31 11:20:15;;;;;;;9.52;1.77;;;11.50;99.90;;;;;;5093182;28;20047;-79
2023/10/31 11:22:45;;;;;;;11.63;2.53;;;11.50;99.90;;;;;;5078094;28;20044;-79
2023/10/31 11:25:23;;;;;;;11.90;2.05;;;11.50;99.90;;;;;;5085140;28;20045;-78
2023/10/31 11:27:52;;;;;;;7.25;1.80;;;11.50;99.90;;;;;;5074774;28;20048;-78
2023/10/31 11:30:27;;;;;;;7.82;1.95;;;11.40;99.90;;;;;;5073963;28;20055;-77
2023/10/31 11:33:01;;;;;;;10.18;2.10;;;11.40;99.90;;;;;;5081956;28;20113;-78
2023/10/31 11:35:29;;;;;;;9.80;2.65;;;11.30;99.90;;;;;;5080215;28;20091;-80
2023/10/31 11:38:10;;;;;;;10.63;1.80;;;11.30;99.90;;;;;;5091881;28;20044;-79
2023/10/31 11:40:37;;;;;;;14.02;2.25;;;11.30;99.90;;;;;;5080380;28;20385;-80
2023/10/31 11:43:06;;;;;;;17.70;3.70;;;11.80;99.90;;;;;;5084810;28;20543;-79
2023/10/31 11:45:47;;;;;;;11.85;2.13;;;11.20;99.90;;;;;;5078929;28;20040;-79
2023/10/31 11:48:16;;;;;;;13.60;2.70;;;11.20;99.90;;;;;;5072994;28;20032;-78
2023/10/31 11:50:42;;;;;;;15.80;2.70;;;11.20;99.90;;;;;;5083662;28;20043;-78
2023/10/31 11:53:12;;;;;;;14.82;2.28;;;11.20;99.90;;;;;;5087016;28;20057;-78
2023/10/31 11:55:46;;;;;;;7.03;1.88;;;11.30;99.90;;;;;;5076280;28;20131;-79
2023/10/31 11:58:22;;;;;;;10.45;2.47;;;11.10;99.90;;;;;;5081778;28;20441;-78
2023/10/31 12:01:00;;;;;;;10.38;2.20;;;11.20;99.90;;;;;;5102592;27;20056;-79
2023/10/31 12:03:26;;;;;;;8.73;1.35;;;12.00;99.90;;;;;;5079707;28;20147;-78
2023/10/31 12:05:57;;;;;;;13.65;2.10;;;11.20;99.90;;;;;;5079070;28;20135;-78
2023/10/31 12:08:34;;;;;;;13.30;2.58;;;11.30;99.90;;;;;;5083967;28;20142;-78
2023/10/31 12:11:20;;;;;;;13.48;2.25;;;11.30;99.90;;;;;;5080687;28;20052;-79
2023/10/31 12:14:06;;;;;;;8.05;1.83;;;11.30;99.90;;;;;;5082002;28;20520;-78
2023/10/31 12:16:33;;;;;;;11.35;2.45;;;11.40;99.90;;;;;;5085997;28;20089;-79
2023/10/31 12:19:04;;;;;;;13.43;2.42;;;11.30;99.90;;;;;;5091218;28;20478;-80
2023/10/31 12:21:49;;;;;;;7.53;1.90;;;11.20;99.90;;;;;;5065878;28;20047;-78
2023/10/31 12:24:17;;;;;;;9.90;2.13;;;11.20;99.90;;;;;;5081797;28;20068;-78
2023/10/31 12:26:44;;;;;;;12.77;2.45;;;12.20;99.90;;;;;;5094603;28;20036;-78
2023/10/31 12:29:20;;;;;;;8.25;1.75;;;11.10;99.90;;;;;;5083496;28;20389;-78
2023/10/31 12:31:52;;;;;;;12.40;2.57;;;11.10;99.90;;;;;;5094003;28;20381;-77
2023/10/31 12:34:19;;;;;;;9.13;2.13;;;11.00;99.90;;;;;;5092851;28;20384;-79
2023/10/31 12:36:51;;;;;;;8.85;2.33;;;11.10;99.90;;;;;;5080485;28;20057;-79
2023/10/31 12:39:20;;;;;;;10.70;2.83;;;11.00;99.90;;;;;;5079045;28;20048;-79